^^
Saratoga-Weather Station Historical Data
Daily Summary for May 11, 2020 Units:  English    Metric   Both
Daily Weekly Monthly Yearly Custom
  High: Low: Average:
Temperature: 55.6 °F 45.5 °F 49.1 °F
Dew Point: 46.4 °F 39.4 °F 43.5 °F
Humidity: 94% 57% 82%
Wind Speed: 8.9mph 0mph 2.6mph
Wind Gust: 11mph - -
Wind- - West
Pressure: 30.2 in 30.1 in -
Precipitation: 0.01 in    
Historical Graphs
 
 
Tabular Data for May 11, 2020
Time Temperature Dew Point Pressure Wind Wind Speed Wind Gust Humidity Rainfall Rate (Hourly) solar
00:01 46 °F 41.2 °F 30.2 in West 2 mph 7 mph 83% 0 in 0 W/m2
00:06 46 °F 41.2 °F 30.2 in SSW 2 mph 8 mph 83% 0 in 0 W/m2
00:11 45.9 °F 41 °F 30.2 in WNW 2.9 mph 9 mph 83% 0 in 0 W/m2
00:16 45.9 °F 41 °F 30.1 in WNW 4.9 mph 10 mph 83% 0 in 0 W/m2
00:21 46 °F 41.2 °F 30.1 in SSW 6 mph 6 mph 83% 0 in 0 W/m2
00:26 46 °F 41.2 °F 30.2 in West 2.9 mph 10 mph 83% 0 in 0 W/m2
00:31 46 °F 41.2 °F 30.1 in West 2.9 mph 6 mph 83% 0 in 0 W/m2
00:36 46 °F 41.2 °F 30.1 in West 6 mph 9 mph 83% 0 in 0 W/m2
00:41 46 °F 41.2 °F 30.1 in SSE 2 mph 6 mph 83% 0 in 0 W/m2
00:46 46 °F 41.2 °F 30.1 in SE 2.9 mph 9 mph 83% 0 in 0 W/m2
00:51 46.2 °F 41.4 °F 30.1 in West 4 mph 7 mph 83% 0 in 0 W/m2
00:56 46.4 °F 41.5 °F 30.1 in WNW 2.9 mph 8 mph 83% 0 in 0 W/m2
01:01 46.6 °F 41.7 °F 30.1 in WSW 0.9 mph 6 mph 83% 0 in 0 W/m2
01:06 46.6 °F 41.7 °F 30.1 in WSW 2 mph 8 mph 83% 0 in 0 W/m2
01:11 46.6 °F 41.7 °F 30.1 in NW 2.9 mph 9 mph 83% 0 in 0 W/m2
01:16 46.6 °F 41.7 °F 30.1 in WNW 2.9 mph 4 mph 83% 0 in 0 W/m2
01:21 46.6 °F 41.7 °F 30.1 in WSW 2.9 mph 7 mph 83% 0 in 0 W/m2
01:26 46.2 °F 41.7 °F 30.1 in SW 4 mph 9 mph 84% 0 in 0 W/m2
01:31 46.2 °F 41.7 °F 30.1 in West 2 mph 6 mph 84% 0 in 0 W/m2
01:36 46.2 °F 41.7 °F 30.1 in SW 2 mph 6 mph 84% 0 in 0 W/m2
01:41 46 °F 41.7 °F 30.1 in NW 2.9 mph 11 mph 85% 0 in 0 W/m2
01:47 46 °F 41.7 °F 30.1 in WNW 4.9 mph 5 mph 85% 0 in 0 W/m2
01:52 46 °F 41.7 °F 30.1 in NW 4 mph 10 mph 85% 0 in 0 W/m2
01:57 46 °F 42.1 °F 30.1 in West 8.9 mph 9 mph 86% 0 in 0 W/m2
02:02 46 °F 42.1 °F 30.1 in West 4 mph 9 mph 86% 0 in 0 W/m2
02:07 46 °F 42.1 °F 30.1 in West 6 mph 9 mph 86% 0 in 0 W/m2
02:12 46 °F 42.1 °F 30.1 in West 4 mph 7 mph 86% 0 in 0 W/m2
02:17 45.9 °F 41.9 °F 30.1 in WNW 2.9 mph 9 mph 86% 0 in 0 W/m2
02:22 45.9 °F 41.9 °F 30.1 in West 4 mph 9 mph 86% 0 in 0 W/m2
02:27 45.9 °F 42.3 °F 30.1 in WSW 4.9 mph 8 mph 87% 0 in 0 W/m2
02:32 45.9 °F 42.3 °F 30.1 in WSW 2.9 mph 8 mph 87% 0 in 0 W/m2
02:37 45.9 °F 42.3 °F 30.1 in West 6 mph 10 mph 87% 0 in 0 W/m2
02:42 45.9 °F 42.3 °F 30.1 in WSW 4.9 mph 8 mph 87% 0 in 0 W/m2
02:47 45.9 °F 42.3 °F 30.1 in WNW 2 mph 11 mph 87% 0 in 0 W/m2
02:52 46 °F 42.4 °F 30.1 in WNW 6.9 mph 7 mph 87% 0 in 0 W/m2
02:57 46 °F 42.4 °F 30.1 in WNW 2.9 mph 11 mph 87% 0 in 0 W/m2
03:02 45.9 °F 42.3 °F 30.1 in WNW 6.9 mph 7 mph 87% 0 in 0 W/m2
03:07 45.9 °F 42.3 °F 30.1 in West 0.9 mph 6 mph 87% 0 in 0 W/m2
03:12 45.7 °F 42.1 °F 30.1 in West 4 mph 11 mph 87% 0 in 0 W/m2
03:17 45.9 °F 42.4 °F 30.1 in NW 4.9 mph 8 mph 88% 0 in 0 W/m2
03:22 45.9 °F 42.4 °F 30.1 in West 2.9 mph 9 mph 88% 0 in 0 W/m2
03:27 46 °F 42.6 °F 30.1 in WNW 6.9 mph 9 mph 88% 0 in 0 W/m2
03:32 46.2 °F 42.8 °F 30.1 in WNW 2.9 mph 9 mph 88% 0 in 0 W/m2
03:37 46 °F 42.6 °F 30.1 in West 2.9 mph 10 mph 88% 0 in 0 W/m2
03:42 46 °F 43 °F 30.1 in West 2.9 mph 6 mph 89% 0 in 0 W/m2
03:47 45.9 °F 42.8 °F 30.1 in West 4 mph 10 mph 89% 0.01 in 0 W/m2
03:52 45.7 °F 43 °F 30.1 in West 6 mph 7 mph 90% 0.01 in 0 W/m2
03:57 45.7 °F 43 °F 30.1 in WNW 0.9 mph 8 mph 90% 0.01 in 0 W/m2
04:02 45.7 °F 43.2 °F 30.1 in WNW 2.9 mph 6 mph 91% 0.01 in 0 W/m2
04:07 45.5 °F 43 °F 30.1 in West 2 mph 8 mph 91% 0.01 in 0 W/m2
04:12 45.5 °F 43 °F 30.1 in SW 0.9 mph 4 mph 91% 0.01 in 0 W/m2
04:17 45.5 °F 43 °F 30.1 in SSW 2.9 mph 9 mph 91% 0.01 in 0 W/m2
04:22 45.5 °F 43 °F 30.1 in WNW 2 mph 8 mph 91% 0.01 in 0 W/m2
04:27 45.5 °F 43 °F 30.1 in WNW 0.9 mph 6 mph 91% 0.01 in 0 W/m2
04:32 45.7 °F 43.2 °F 30.1 in WSW 2.9 mph 3 mph 91% 0.01 in 0 W/m2
04:37 45.7 °F 43.2 °F 30.1 in WSW 2 mph 5 mph 91% 0.01 in 0 W/m2
04:42 45.7 °F 43.2 °F 30.1 in West 4 mph 7 mph 91% 0.01 in 0 W/m2
04:47 45.7 °F 43.2 °F 30.1 in West 2 mph 7 mph 91% 0 in 0 W/m2
04:52 45.7 °F 43.2 °F 30.1 in West 2 mph 6 mph 91% 0 in 0 W/m2
04:57 45.7 °F 43.5 °F 30.1 in West 2 mph 4 mph 92% 0 in 0 W/m2
05:02 45.7 °F 43.5 °F 30.1 in West 2 mph 6 mph 92% 0 in 0 W/m2
05:07 45.7 °F 43.5 °F 30.1 in WSW 2.9 mph 8 mph 92% 0 in 0 W/m2
05:12 45.7 °F 43.5 °F 30.1 in WSW 4.9 mph 9 mph 92% 0 in 0 W/m2
05:17 45.7 °F 43.5 °F 30.1 in West 4 mph 7 mph 92% 0 in 0 W/m2
05:22 45.7 °F 43.5 °F 30.1 in West 0.9 mph 9 mph 92% 0 in 0 W/m2
05:27 45.7 °F 43.5 °F 30.1 in WSW 2.9 mph 8 mph 92% 0 in 0 W/m2
05:32 45.7 °F 43.5 °F 30.1 in WNW 2 mph 7 mph 92% 0 in 0 W/m2
05:37 45.7 °F 43.5 °F 30.1 in NW 2.9 mph 8 mph 92% 0 in 0 W/m2
05:42 45.7 °F 43.5 °F 30.1 in WSW 2.9 mph 7 mph 92% 0 in 0 W/m2
05:47 45.9 °F 43.9 °F 30.1 in WNW 2.9 mph 8 mph 93% 0 in 0 W/m2
05:52 45.9 °F 43.9 °F 30.1 in NW 2.9 mph 6 mph 93% 0 in 0 W/m2
05:57 45.9 °F 43.9 °F 30.1 in West 2.9 mph 7 mph 93% 0 in 0 W/m2
06:02 46 °F 44.1 °F 30.1 in WSW 2 mph 6 mph 93% 0 in 0 W/m2
06:08 46 °F 44.1 °F 30.1 in Calm   2 mph 93% 0 in 0 W/m2
06:13 45.9 °F 43.9 °F 30.1 in Calm   3 mph 93% 0 in 0 W/m2
06:18 45.9 °F 43.9 °F 30.1 in WNW 2 mph 3 mph 93% 0 in 0 W/m2
06:23 46 °F 44.1 °F 30.1 in WNW 0.9 mph 4 mph 93% 0 in 0 W/m2
06:28 46 °F 44.1 °F 30.1 in WNW 0.9 mph 2 mph 93% 0 in 0 W/m2
06:33 46 °F 44.1 °F 30.1 in Calm   1 mph 93% 0 in 0 W/m2
06:38 46 °F 44.1 °F 30.1 in Calm   2 mph 93% 0 in 0 W/m2
06:43 46 °F 44.1 °F 30.1 in Calm   1 mph 93% 0 in 0 W/m2
06:48 46 °F 44.1 °F 30.1 in WNW 0.9 mph 1 mph 93% 0 in 0 W/m2
06:53 46 °F 44.1 °F 30.1 in Calm   1 mph 93% 0 in 0 W/m2
06:58 46 °F 44.1 °F 30.1 in Calm   1 mph 93% 0 in 0 W/m2
07:03 46 °F 44.1 °F 30.1 in Calm     93% 0 in 0 W/m2
07:08 46 °F 44.1 °F 30.1 in Calm   1 mph 93% 0 in 0 W/m2
07:13 46 °F 44.1 °F 30.1 in Calm     93% 0 in 0 W/m2
07:18 46 °F 44.4 °F 30.1 in Calm     94% 0 in 0 W/m2
07:23 46 °F 44.4 °F 30.1 in WNW 2 mph 2 mph 94% 0 in 0 W/m2
07:28 46 °F 44.4 °F 30.1 in WNW 0.9 mph 1 mph 94% 0 in 0 W/m2
07:33 46 °F 44.4 °F 30.1 in Calm     94% 0 in 0 W/m2
07:38 46 °F 44.4 °F 30.1 in Calm     94% 0 in 0 W/m2
07:43 46 °F 44.4 °F 30.1 in Calm     94% 0 in 0 W/m2
07:48 46 °F 44.4 °F 30.1 in Calm     94% 0 in 0 W/m2
07:53 46 °F 44.4 °F 30.1 in WNW 2 mph 2 mph 94% 0 in 5 W/m2
07:58 46 °F 44.4 °F 30.1 in WNW 0.9 mph 3 mph 94% 0 in 7 W/m2
08:03 46.2 °F 44.6 °F 30.1 in WNW 0.9 mph 3 mph 94% 0 in 7 W/m2
08:08 46.2 °F 44.6 °F 30.1 in Calm   3 mph 94% 0 in 9 W/m2
08:13 46.4 °F 44.8 °F 30.1 in WNW 2.9 mph 3 mph 94% 0 in 12 W/m2
08:18 46.4 °F 44.8 °F 30.1 in West 0.9 mph 2 mph 94% 0 in 12 W/m2
08:23 46.6 °F 45 °F 30.1 in Calm   2 mph 94% 0 in 11 W/m2
08:28 46.6 °F 45 °F 30.1 in West 2 mph 2 mph 94% 0 in 11 W/m2
08:33 46.6 °F 45 °F 30.1 in Calm   2 mph 94% 0 in 11 W/m2
08:38 46.6 °F 45 °F 30.1 in WNW 0.9 mph 2 mph 94% 0 in 12 W/m2
08:43 46.8 °F 45.1 °F 30.1 in WNW 0.9 mph 2 mph 94% 0 in 19 W/m2
08:48 46.8 °F 45.1 °F 30.1 in Calm   3 mph 94% 0 in 33 W/m2
08:53 46.8 °F 45.1 °F 30.1 in Calm   2 mph 94% 0 in 42 W/m2
08:58 46.8 °F 45.1 °F 30.1 in NW 0.9 mph 1 mph 94% 0 in 44 W/m2
09:03 46.9 °F 45.3 °F 30.1 in Calm   1 mph 94% 0 in 49 W/m2
09:08 46.9 °F 45.3 °F 30.1 in Calm   1 mph 94% 0 in 47 W/m2
09:13 47.1 °F 45.5 °F 30.1 in NW 0.9 mph 1 mph 94% 0 in 42 W/m2
09:18 47.1 °F 45.5 °F 30.1 in West 2 mph 3 mph 94% 0 in 63 W/m2
09:23 47.3 °F 45.7 °F 30.1 in WNW 2.9 mph 4 mph 94% 0 in 67 W/m2
09:28 47.3 °F 45.7 °F 30.1 in WNW 0.9 mph 2 mph 94% 0 in 54 W/m2
09:33 47.5 °F 45.9 °F 30.1 in Calm   2 mph 94% 0 in 47 W/m2
09:38 47.5 °F 45.9 °F 30.1 in WNW 0.9 mph 1 mph 94% 0 in 65 W/m2
09:43 47.7 °F 46 °F 30.1 in Calm     94% 0 in 81 W/m2
09:48 47.7 °F 46 °F 30.1 in Calm     94% 0 in 60 W/m2
09:53 47.8 °F 45.9 °F 30.1 in Calm     93% 0 in 76 W/m2
09:58 47.8 °F 45.9 °F 30.1 in Calm     93% 0 in 109 W/m2
10:03 48 °F 46 °F 30.1 in Calm   2 mph 93% 0 in 132 W/m2
10:08 48.2 °F 46 °F 30.1 in WNW 2 mph 3 mph 92% 0 in 153 W/m2
10:13 48.6 °F 46.4 °F 30.1 in West 2 mph 2 mph 92% 0 in 283 W/m2
10:18 48.7 °F 46.2 °F 30.1 in Calm     91% 0 in 149 W/m2
10:23 48.9 °F 46 °F 30.1 in WNW 0.9 mph 6 mph 90% 0 in 77 W/m2
10:28 49.1 °F 46 °F 30.1 in West 2 mph 4 mph 89% 0 in 329 W/m2
10:33 49.3 °F 46.2 °F 30.1 in WNW 2 mph 7 mph 89% 0 in 336 W/m2
10:38 49.6 °F 45.9 °F 30.1 in West 4 mph 7 mph 87% 0 in 367 W/m2
10:43 49.6 °F 45.9 °F 30.1 in NW 2 mph 4 mph 87% 0 in 104 W/m2
10:48 50 °F 46.2 °F 30.1 in WNW 0.9 mph 7 mph 87% 0 in 476 W/m2
10:53 50.4 °F 46.4 °F 30.1 in West 2 mph 4 mph 86% 0 in 566 W/m2
10:58 50.5 °F 46.2 °F 30.1 in WSW 6 mph 6 mph 85% 0 in 237 W/m2
11:03 50.5 °F 46.2 °F 30.1 in Calm   2 mph 85% 0 in 243 W/m2
11:08 50.5 °F 46.2 °F 30.1 in WNW 2 mph 3 mph 85% 0 in 58 W/m2
11:13 50.4 °F 45.7 °F 30.1 in WSW 2 mph 3 mph 84% 0 in 53 W/m2
11:18 50.4 °F 45.7 °F 30.1 in WNW 2.9 mph 4 mph 84% 0 in 72 W/m2
11:23 50.2 °F 45.9 °F 30.1 in WNW 4.9 mph 5 mph 85% 0 in 105 W/m2
11:28 50 °F 45.7 °F 30.1 in WNW 2 mph 4 mph 85% 0 in 113 W/m2
11:33 50 °F 45.3 °F 30.1 in WNW 2 mph 6 mph 84% 0 in 142 W/m2
11:38 50 °F 45.7 °F 30.1 in West 2 mph 3 mph 85% 0 in 144 W/m2
11:43 50.2 °F 45.5 °F 30.1 in NW 0.9 mph 4 mph 84% 0 in 137 W/m2
11:48 50.4 °F 45.7 °F 30.1 in West 2 mph 6 mph 84% 0 in 216 W/m2
11:53 50.5 °F 45.3 °F 30.1 in WNW 2 mph 3 mph 82% 0 in 675 W/m2
11:58 50.7 °F 45.1 °F 30.1 in West 2.9 mph 5 mph 81% 0 in 149 W/m2
12:03 50.9 °F 44.6 °F 30.1 in WNW 0.9 mph 4 mph 79% 0 in 84 W/m2
12:08 51.1 °F 45.1 °F 30.1 in NW 0.9 mph 2 mph 80% 0 in 69 W/m2
12:13 51.1 °F 45.1 °F 30.1 in NW 2.9 mph 4 mph 80% 0 in 56 W/m2
12:18 50.7 °F 44.1 °F 30.1 in WNW 0.9 mph 5 mph 78% 0 in 63 W/m2
12:23 50.5 °F 43.9 °F 30.1 in NW 4.9 mph 6 mph 78% 0 in 97 W/m2
12:28 50.5 °F 43.5 °F 30.1 in West 2 mph 4 mph 77% 0 in 72 W/m2
12:33 51.1 °F 43.5 °F 30.1 in WSW 2.9 mph 4 mph 75% 0 in 434 W/m2
12:39 51.4 °F 43.5 °F 30.1 in WSW 2 mph 4 mph 74% 0 in 555 W/m2
12:44 51.6 °F 42.4 °F 30.1 in WSW 0.9 mph 4 mph 71% 0 in 594 W/m2
12:49 52.2 °F 43.3 °F 30.1 in WNW 2 mph 4 mph 72% 0 in 647 W/m2
12:54 52.9 °F 43 °F 30.1 in NW 2 mph 4 mph 69% 0 in 691 W/m2
12:59 53.2 °F 43.3 °F 30.1 in WSW 2.9 mph 4 mph 69% 0 in 744 W/m2
13:04 53.8 °F 43.9 °F 30.1 in West 2.9 mph 8 mph 69% 0 in 643 W/m2
13:09 54 °F 42.1 °F 30.1 in WNW 2.9 mph 8 mph 64% 0 in 693 W/m2
13:14 53.8 °F 41 °F 30.1 in West 2 mph 5 mph 62% 0 in 74 W/m2
13:19 53.2 °F 41.7 °F 30.1 in West 2.9 mph 6 mph 65% 0 in 76 W/m2
13:24 53.2 °F 42.3 °F 30.1 in WNW 2 mph 3 mph 66% 0 in 582 W/m2
13:29 53.2 °F 41.7 °F 30.1 in West 2.9 mph 7 mph 65% 0 in 591 W/m2
13:34 53.4 °F 41.5 °F 30.1 in WNW 2.9 mph 5 mph 64% 0 in 621 W/m2
13:39 53.8 °F 42.3 °F 30.1 in WSW 2.9 mph 7 mph 65% 0 in 659 W/m2
13:44 54.1 °F 42.3 °F 30.1 in WNW 4.9 mph 5 mph 64% 0 in 680 W/m2
13:49 54.7 °F 41.9 °F 30.1 in ENE 2.9 mph 10 mph 62% 0 in 153 W/m2
13:54 54.9 °F 41.7 °F 30.1 in ENE 2 mph 4 mph 61% 0 in 148 W/m2
13:59 54.9 °F 41.2 °F 30.1 in WNW 4 mph 4 mph 60% 0 in 91 W/m2
14:04 54.3 °F 39.4 °F 30.1 in WNW 4 mph 4 mph 57% 0 in 113 W/m2
14:09 54 °F 39.9 °F 30.1 in WNW 2.9 mph 4 mph 59% 0 in 98 W/m2
14:14 54 °F 41.2 °F 30.1 in WNW 2 mph 7 mph 62% 0 in 120 W/m2
14:19 54.1 °F 41.4 °F 30.1 in West 4 mph 7 mph 62% 0 in 105 W/m2
14:24 54 °F 42.1 °F 30.1 in West 4 mph 5 mph 64% 0 in 83 W/m2
14:29 54.1 °F 42.3 °F 30.1 in West 2 mph 6 mph 64% 0 in 62 W/m2
14:34 54.1 °F 41.9 °F 30.1 in West 4 mph 8 mph 63% 0 in 58 W/m2
14:39 54.1 °F 41.9 °F 30.1 in WSW 4.9 mph 7 mph 63% 0 in 70 W/m2
14:44 54 °F 39.9 °F 30.1 in NNW 0.9 mph 8 mph 59% 0 in 70 W/m2
14:49 54.3 °F 42.1 °F 30.1 in WSW 4.9 mph 7 mph 63% 0 in 91 W/m2
14:54 54.3 °F 40.8 °F 30.1 in West 4 mph 8 mph 60% 0 in 100 W/m2
14:59 54.1 °F 41.4 °F 30.1 in West 2.9 mph 7 mph 62% 0 in 148 W/m2
15:04 54.1 °F 41.4 °F 30.1 in West 2 mph 8 mph 62% 0 in 213 W/m2
15:09 54.3 °F 42.1 °F 30.1 in West 4 mph 7 mph 63% 0 in 288 W/m2
15:14 54.7 °F 41 °F 30.1 in West 4 mph 11 mph 60% 0 in 279 W/m2
15:19 54.7 °F 41.5 °F 30.1 in NW 2 mph 5 mph 61% 0 in 144 W/m2
15:24 54.5 °F 41.7 °F 30.1 in WNW 4 mph 11 mph 62% 0 in 156 W/m2
15:29 54.5 °F 42.1 °F 30.1 in WNW 2.9 mph 7 mph 63% 0 in 202 W/m2
15:34 54.7 °F 42.3 °F 30.1 in West 4 mph 6 mph 63% 0 in 204 W/m2
15:39 54.7 °F 42.3 °F 30.1 in West 4 mph 8 mph 63% 0 in 230 W/m2
15:44 54.9 °F 41.7 °F 30.1 in NNW 0.9 mph 5 mph 61% 0 in 77 W/m2
15:49 54.9 °F 41.2 °F 30.1 in NW 2 mph 4 mph 60% 0 in 104 W/m2
15:54 55 °F 41.4 °F 30.1 in NW 0.9 mph 4 mph 60% 0 in 171 W/m2
15:59 55 °F 41 °F 30.1 in WNW 2.9 mph 6 mph 59% 0 in 141 W/m2
16:04 55 °F 41 °F 30.1 in WSW 4 mph 9 mph 59% 0 in 165 W/m2
16:09 54.9 °F 40.8 °F 30.1 in NW 4.9 mph 6 mph 59% 0 in 202 W/m2
16:14 55 °F 40.5 °F 30.1 in West 4 mph 8 mph 58% 0 in 401 W/m2
16:19 55.4 °F 40.8 °F 30.1 in WNW 8.1 mph 8 mph 58% 0 in 490 W/m2
16:24 55.6 °F 41.5 °F 30.1 in West 4 mph 6 mph 59% 0 in 174 W/m2
16:29 55.6 °F 41 °F 30.1 in WNW 2.9 mph 8 mph 58% 0 in 455 W/m2
16:34 55.6 °F 41.5 °F 30.1 in West 2.9 mph 5 mph 59% 0 in 141 W/m2
16:39 55.2 °F 41.5 °F 30.1 in NW 6.9 mph 10 mph 60% 0 in 91 W/m2
16:44 54.7 °F 41.5 °F 30.1 in WNW 4.9 mph 9 mph 61% 0 in 70 W/m2
16:49 54.1 °F 41.9 °F 30.1 in West 4 mph 6 mph 63% 0 in 69 W/m2
16:54 54 °F 41.7 °F 30.1 in WSW 4.9 mph 8 mph 63% 0 in 70 W/m2
16:59 54 °F 42.1 °F 30.1 in WNW 4 mph 6 mph 64% 0 in 86 W/m2
17:04 53.8 °F 42.3 °F 30.1 in West 2 mph 4 mph 65% 0 in 118 W/m2
17:09 54 °F 42.4 °F 30.1 in WNW 2 mph 8 mph 65% 0 in 113 W/m2
17:14 54 °F 42.8 °F 30.1 in WSW 4.9 mph 9 mph 66% 0 in 93 W/m2
17:19 54 °F 42.8 °F 30.1 in West 4 mph 9 mph 66% 0 in 91 W/m2
17:24 53.6 °F 42.4 °F 30.1 in WNW 4.9 mph 8 mph 66% 0 in 97 W/m2
17:30 53.8 °F 42.6 °F 30.1 in NW 2 mph 8 mph 66% 0 in 86 W/m2
17:35 53.8 °F 43.5 °F 30.1 in West 2.9 mph 8 mph 68% 0 in 81 W/m2
17:40 53.2 °F 43.7 °F 30.1 in West 4 mph 9 mph 70% 0 in 90 W/m2
17:45 53.1 °F 44.2 °F 30.1 in West 2.9 mph 5 mph 72% 0 in 83 W/m2
17:50 52.9 °F 44.4 °F 30.1 in NW 4 mph 10 mph 73% 0 in 65 W/m2
17:55 52.3 °F 43.9 °F 30.1 in WNW 4 mph 7 mph 73% 0 in 60 W/m2
18:00 52.3 °F 44.2 °F 30.1 in West 6 mph 7 mph 74% 0 in 51 W/m2
18:05 52.2 °F 44.1 °F 30.1 in WSW 2 mph 5 mph 74% 0 in 44 W/m2
18:10 52 °F 43.9 °F 30.1 in West 6 mph 7 mph 74% 0 in 40 W/m2
18:15 52 °F 44.2 °F 30.1 in West 2.9 mph 5 mph 75% 0 in 35 W/m2
18:20 51.8 °F 44.1 °F 30.1 in West 2.9 mph 7 mph 75% 0 in 32 W/m2
18:25 51.6 °F 43.9 °F 30.1 in West 2 mph 6 mph 75% 0 in 25 W/m2
18:30 51.6 °F 44.2 °F 30.1 in WNW 2.9 mph 7 mph 76% 0 in 18 W/m2
18:35 51.4 °F 44.4 °F 30.1 in West 2.9 mph 7 mph 77% 0 in 12 W/m2
18:40 51.3 °F 44.6 °F 30.1 in West 2 mph 4 mph 78% 0 in 11 W/m2
18:45 51.1 °F 44.4 °F 30.1 in West 2 mph 4 mph 78% 0 in 7 W/m2
18:50 50.9 °F 44.6 °F 30.1 in West 2.9 mph 3 mph 79% 0 in 5 W/m2
18:55 50.7 °F 44.4 °F 30.1 in West 2.9 mph 4 mph 79% 0 in 0 W/m2
19:00 50.4 °F 44.1 °F 30.1 in West 2 mph 7 mph 79% 0 in 0 W/m2
19:05 50.2 °F 44.2 °F 30.1 in West 2 mph 5 mph 80% 0 in 0 W/m2
19:10 50 °F 44.1 °F 30.1 in WNW 4.9 mph 7 mph 80% 0 in 0 W/m2
19:15 49.8 °F 43.9 °F 30.1 in WSW 4 mph 7 mph 80% 0 in 0 W/m2
19:20 49.8 °F 43.9 °F 30.1 in West 6 mph 7 mph 80% 0 in 0 W/m2
19:25 49.8 °F 44.2 °F 30.1 in NW 4.9 mph 6 mph 81% 0 in 0 W/m2
19:30 49.8 °F 44.2 °F 30.1 in West 2.9 mph 4 mph 81% 0 in 0 W/m2
19:35 49.8 °F 44.2 °F 30.1 in West 6 mph 8 mph 81% 0 in 0 W/m2
19:40 49.8 °F 44.2 °F 30.1 in WNW 4.9 mph 7 mph 81% 0 in 0 W/m2
19:45 49.8 °F 44.2 °F 30.1 in West 6 mph 8 mph 81% 0 in 0 W/m2
19:50 49.8 °F 44.2 °F 30.1 in West 2.9 mph 5 mph 81% 0 in 0 W/m2
19:55 49.6 °F 44.4 °F 30.1 in West 8 mph 8 mph 82% 0 in 0 W/m2
20:00 49.6 °F 44.4 °F 30.1 in West 2 mph 5 mph 82% 0 in 0 W/m2
20:05 49.6 °F 44.4 °F 30.1 in WSW 2.9 mph 4 mph 82% 0 in 0 W/m2
20:10 49.6 °F 44.4 °F 30.1 in West 2 mph 4 mph 82% 0 in 0 W/m2
20:15 49.5 °F 44.6 °F 30.1 in West 6 mph 6 mph 83% 0 in 0 W/m2
20:20 49.3 °F 44.4 °F 30.1 in West 2 mph 4 mph 83% 0 in 0 W/m2
20:25 49.3 °F 44.6 °F 30.1 in West 4 mph 6 mph 84% 0 in 0 W/m2
20:30 48.9 °F 44.2 °F 30.1 in West 2 mph 6 mph 84% 0 in 0 W/m2
20:35 48.9 °F 44.2 °F 30.1 in WNW 2.9 mph 6 mph 84% 0 in 0 W/m2
20:40 48.9 °F 44.6 °F 30.1 in WNW 2.9 mph 6 mph 85% 0 in 0 W/m2
20:45 48.9 °F 44.6 °F 30.1 in West 2 mph 4 mph 85% 0 in 0 W/m2
20:50 48.9 °F 44.6 °F 30.2 in SW 2 mph 4 mph 85% 0 in 0 W/m2
20:55 48.7 °F 44.4 °F 30.2 in WNW 0.9 mph 3 mph 85% 0 in 0 W/m2
21:00 48.6 °F 44.2 °F 30.2 in Calm     85% 0 in 0 W/m2
21:05 48.4 °F 44.1 °F 30.2 in Calm   3 mph 85% 0 in 0 W/m2
21:10 48 °F 44.1 °F 30.2 in WNW 0.9 mph 2 mph 86% 0 in 0 W/m2
21:15 47.7 °F 43.7 °F 30.2 in WNW 2 mph 2 mph 86% 0 in 0 W/m2
21:20 47.5 °F 44.1 °F 30.2 in WNW 2 mph 4 mph 88% 0 in 0 W/m2
21:25 47.8 °F 44.4 °F 30.2 in WNW 2 mph 3 mph 88% 0 in 0 W/m2
21:30 48 °F 44.6 °F 30.2 in WNW 2 mph 4 mph 88% 0 in 0 W/m2
21:35 48.4 °F 44.8 °F 30.2 in WNW 2 mph 6 mph 87% 0 in 0 W/m2
21:40 48.6 °F 44.8 °F 30.2 in West 2 mph 4 mph 87% 0 in 0 W/m2
21:45 48.6 °F 44.8 °F 30.2 in WNW 2 mph 3 mph 87% 0 in 0 W/m2
21:50 48.7 °F 45 °F 30.2 in West 2.9 mph 6 mph 87% 0 in 0 W/m2
21:55 48.7 °F 44.8 °F 30.2 in West 2.9 mph 4 mph 86% 0 in 0 W/m2
22:00 48.7 °F 44.8 °F 30.2 in West 2.9 mph 7 mph 86% 0 in 0 W/m2
22:05 48.7 °F 44.8 °F 30.2 in WSW 4 mph 6 mph 86% 0 in 0 W/m2
22:10 48.7 °F 44.8 °F 30.2 in WSW 2.9 mph 4 mph 86% 0 in 0 W/m2
22:15 48.6 °F 44.6 °F 30.2 in West 2 mph 4 mph 86% 0 in 0 W/m2
22:20 48.6 °F 44.6 °F 30.2 in WNW 0.9 mph 3 mph 86% 0 in 0 W/m2
22:25 48.4 °F 44.4 °F 30.2 in WSW 2 mph 6 mph 86% 0 in 0 W/m2
22:31 48.4 °F 44.4 °F 30.2 in West 4 mph 4 mph 86% 0 in 0 W/m2
22:36 48.4 °F 44.4 °F 30.2 in West 7 mph 7 mph 86% 0 in 0 W/m2
22:41 48.4 °F 44.4 °F 30.2 in WNW 2 mph 4 mph 86% 0 in 0 W/m2
22:46 48.4 °F 44.4 °F 30.2 in WSW 4 mph 4 mph 86% 0 in 0 W/m2
22:51 48.4 °F 44.4 °F 30.2 in WSW 2 mph 4 mph 86% 0 in 0 W/m2
22:56 48.2 °F 44.2 °F 30.2 in West 2 mph 4 mph 86% 0 in 0 W/m2
23:01 48.2 °F 44.2 °F 30.2 in WNW 2 mph 4 mph 86% 0 in 0 W/m2
23:06 48.4 °F 44.4 °F 30.2 in WNW 2.9 mph 6 mph 86% 0 in 0 W/m2
23:11 48.4 °F 44.4 °F 30.2 in West 2.9 mph 3 mph 86% 0 in 0 W/m2
23:16 48.4 °F 44.4 °F 30.2 in West 2.9 mph 6 mph 86% 0 in 0 W/m2
23:21 48.6 °F 44.6 °F 30.2 in West 2.9 mph 4 mph 86% 0 in 0 W/m2
23:26 48.6 °F 44.6 °F 30.2 in WSW 2 mph 3 mph 86% 0 in 0 W/m2
23:31 48.6 °F 44.6 °F 30.2 in WSW 2 mph 4 mph 86% 0 in 0 W/m2
23:36 48.7 °F 44.8 °F 30.2 in West 2.9 mph 3 mph 86% 0 in 0 W/m2
23:41 48.7 °F 44.8 °F 30.2 in West 2.9 mph 6 mph 86% 0 in 0 W/m2
23:46 48.7 °F 44.8 °F 30.2 in West 2.9 mph 3 mph 86% 0 in 0 W/m2
23:51 48.6 °F 44.6 °F 30.2 in West 0.9 mph 6 mph 86% 0 in 0 W/m2
23:56 48.6 °F 44.6 °F 30.2 in West 2 mph 4 mph 86% 0 in 0 W/m2
Juneau County Weather
Compliments of Weather Underground - 4 mb